Time;durP1;ratioP1;P1;durP2;ratioP2;P2;SDS_P1;SDS_P2;PMS_P1;PMS_P2;Temp;Humidity;BMP_temperature;BMP_pressure;BME280_temperature;BME280_humidity;BME280_pressure;Samples;Min_cycle;Max_cycle;Signal;HPM_P1;HPM_P2
2023/12/07 00:01:27;;;;;;;3.55;2.47;;;5.30;93.40;;;;;;4931562;29;20276;-44
2023/12/07 00:03:55;;;;;;;4.35;3.20;;;5.30;93.40;;;;;;4931685;29;20256;-45
2023/12/07 00:06:24;;;;;;;3.15;2.22;;;5.30;93.40;;;;;;4929465;29;20567;-44
2023/12/07 00:08:52;;;;;;;3.78;2.75;;;5.30;93.40;;;;;;4932160;29;20227;-46
2023/12/07 00:11:20;;;;;;;2.95;2.53;;;5.30;93.40;;;;;;4924662;29;20197;-45
2023/12/07 00:13:48;;;;;;;4.78;2.58;;;5.30;93.40;;;;;;4929341;29;20228;-43
2023/12/07 00:16:16;;;;;;;3.72;3.05;;;5.30;93.40;;;;;;4933070;29;20189;-44
2023/12/07 00:18:44;;;;;;;4.45;3.58;;;5.30;93.30;;;;;;4929428;29;20237;-46
2023/12/07 00:21:13;;;;;;;3.85;2.83;;;5.30;93.30;;;;;;4925813;29;20299;-46
2023/12/07 00:23:41;;;;;;;6.82;3.65;;;5.30;93.30;;;;;;4930015;29;20698;-44
2023/12/07 00:26:10;;;;;;;5.00;3.63;;;5.30;93.40;;;;;;4928807;29;20272;-46
2023/12/07 00:28:38;;;;;;;3.28;2.25;;;5.30;93.40;;;;;;4931978;29;20710;-46
2023/12/07 00:31:08;;;;;;;5.47;4.25;;;5.30;93.30;;;;;;4931163;29;20193;-46
2023/12/07 00:33:36;;;;;;;4.65;3.70;;;5.30;93.40;;;;;;4926189;29;20220;-45
2023/12/07 00:36:06;;;;;;;4.18;2.40;;;5.30;93.50;;;;;;4929293;29;20545;-44
2023/12/07 00:38:35;;;;;;;3.17;2.38;;;5.30;93.40;;;;;;4931071;29;20232;-46
2023/12/07 00:41:04;;;;;;;2.95;2.45;;;5.30;93.30;;;;;;4929170;29;20237;-44
2023/12/07 00:43:32;;;;;;;3.90;2.95;;;5.30;93.30;;;;;;4930241;29;20221;-46
2023/12/07 00:46:00;;;;;;;3.85;3.45;;;5.30;93.40;;;;;;4931465;29;20204;-45
2023/12/07 00:48:28;;;;;;;3.67;2.67;;;5.20;93.30;;;;;;4929040;29;20734;-45
2023/12/07 00:50:57;;;;;;;4.90;3.35;;;5.20;93.30;;;;;;4924987;29;20189;-44
2023/12/07 00:53:26;;;;;;;3.45;2.50;;;5.20;93.40;;;;;;4929480;29;20220;-46
2023/12/07 00:55:54;;;;;;;4.65;3.55;;;5.20;93.30;;;;;;4925870;29;20690;-46
2023/12/07 00:58:22;;;;;;;4.25;2.88;;;5.20;93.40;;;;;;4928321;29;20221;-46
2023/12/07 01:00:51;;;;;;;3.70;2.63;;;5.20;93.30;;;;;;4930057;29;20671;-44
2023/12/07 01:03:19;;;;;;;4.07;3.47;;;5.30;93.30;;;;;;4931332;29;20229;-46
2023/12/07 01:05:47;;;;;;;3.78;2.80;;;5.20;93.30;;;;;;4925486;29;20702;-44
2023/12/07 01:08:16;;;;;;;5.43;2.33;;;5.20;93.30;;;;;;4931950;29;20229;-46
2023/12/07 01:10:45;;;;;;;3.95;2.75;;;5.20;93.30;;;;;;4927085;29;20611;-44
2023/12/07 01:13:14;;;;;;;4.95;2.67;;;5.20;93.30;;;;;;4928557;29;20240;-46
2023/12/07 01:15:42;;;;;;;3.30;2.97;;;5.20;93.30;;;;;;4928806;29;20624;-45
2023/12/07 01:18:10;;;;;;;3.65;2.95;;;5.20;93.20;;;;;;4930340;29;20670;-44
2023/12/07 01:20:38;;;;;;;3.53;2.35;;;5.30;93.30;;;;;;4927811;29;20322;-46
2023/12/07 01:23:06;;;;;;;4.95;3.80;;;5.20;93.30;;;;;;4929585;29;21302;-44
2023/12/07 01:25:34;;;;;;;4.80;2.70;;;5.20;93.20;;;;;;4930956;29;20244;-46
2023/12/07 01:28:04;;;;;;;5.05;3.75;;;5.20;93.20;;;;;;4925985;29;20612;-45
2023/12/07 01:30:32;;;;;;;2.53;2.30;;;5.20;93.20;;;;;;4931912;29;20330;-47
2023/12/07 01:33:00;;;;;;;3.50;2.60;;;5.20;93.20;;;;;;4924136;29;20216;-46
2023/12/07 01:35:29;;;;;;;4.95;4.00;;;5.20;93.20;;;;;;4928511;29;20193;-46
2023/12/07 01:37:57;;;;;;;2.88;2.55;;;5.20;93.20;;;;;;4928972;29;20230;-44
2023/12/07 01:40:25;;;;;;;3.85;2.95;;;5.20;93.20;;;;;;4932203;29;20207;-45
2023/12/07 01:42:54;;;;;;;5.32;3.15;;;5.20;93.30;;;;;;4929042;29;20334;-45
2023/12/07 01:45:23;;;;;;;3.17;2.50;;;5.20;93.20;;;;;;4928998;29;20623;-46
2023/12/07 01:47:53;;;;;;;3.45;2.78;;;5.20;93.20;;;;;;4927236;29;20229;-46
2023/12/07 01:50:23;;;;;;;4.00;2.50;;;5.20;93.20;;;;;;4941833;28;20193;-49
2023/12/07 01:52:55;;;;;;;2.72;2.53;;;5.20;93.10;;;;;;4925179;29;20240;-46
2023/12/07 01:55:26;;;;;;;3.80;3.40;;;5.20;93.10;;;;;;4929197;29;20196;-45
2023/12/07 01:57:54;;;;;;;3.25;2.65;;;5.20;93.10;;;;;;4928158;29;20371;-46
2023/12/07 02:00:24;;;;;;;3.08;2.67;;;5.20;93.10;;;;;;4931527;29;20193;-46
2023/12/07 02:02:53;;;;;;;3.35;3.00;;;5.20;93.10;;;;;;4928119;29;20229;-45
2023/12/07 02:05:21;;;;;;;3.15;2.85;;;5.20;93.10;;;;;;4927433;29;20201;-45
2023/12/07 02:07:49;;;;;;;3.35;2.35;;;5.20;93.20;;;;;;4924933;29;20233;-45
2023/12/07 02:10:20;;;;;;;4.57;3.35;;;5.20;93.20;;;;;;4928142;29;20236;-46
2023/12/07 02:12:49;;;;;;;3.40;2.97;;;5.20;93.10;;;;;;4918504;29;20829;-45
2023/12/07 02:15:18;;;;;;;5.53;3.40;;;5.20;93.10;;;;;;4927546;29;20268;-47
2023/12/07 02:18:00;;;;;;;4.53;2.90;;;5.20;93.10;;;;;;4927520;29;20218;-45
2023/12/07 02:20:34;;;;;;;3.38;2.85;;;5.20;93.10;;;;;;4925433;29;20312;-44
2023/12/07 02:23:05;;;;;;;4.90;3.20;;;5.20;93.10;;;;;;4920180;29;20713;-45
2023/12/07 02:25:37;;;;;;;2.90;2.10;;;5.20;93.10;;;;;;4932844;29;20188;-45
2023/12/07 02:28:07;;;;;;;3.17;2.80;;;5.20;93.10;;;;;;4925564;29;20233;-47
2023/12/07 02:30:35;;;;;;;3.22;2.70;;;5.20;93.10;;;;;;4928305;29;20299;-45
2023/12/07 02:33:04;;;;;;;4.95;3.67;;;5.20;93.10;;;;;;4928383;29;20704;-45
2023/12/07 02:35:34;;;;;;;3.30;2.55;;;5.20;93.10;;;;;;4928253;29;20197;-46
2023/12/07 02:38:04;;;;;;;4.00;2.58;;;5.20;93.10;;;;;;4930589;29;20263;-47
2023/12/07 02:40:32;;;;;;;4.78;2.80;;;5.20;93.10;;;;;;4934319;29;20575;-45
2023/12/07 02:43:02;;;;;;;4.00;3.17;;;5.20;93.00;;;;;;4925295;29;20790;-44
2023/12/07 02:45:33;;;;;;;3.15;2.80;;;5.20;93.00;;;;;;4935041;29;20193;-47
2023/12/07 02:48:02;;;;;;;5.05;3.45;;;5.10;93.00;;;;;;4929928;29;20228;-45
2023/12/07 02:50:30;;;;;;;4.40;3.22;;;5.20;93.00;;;;;;4932742;29;20216;-45
2023/12/07 02:52:58;;;;;;;4.55;3.08;;;5.20;93.00;;;;;;4929883;29;20288;-44
2023/12/07 02:55:26;;;;;;;4.57;3.13;;;5.20;93.00;;;;;;4934895;29;20192;-44
2023/12/07 02:57:54;;;;;;;7.22;4.40;;;5.20;93.00;;;;;;4925562;29;20788;-45
2023/12/07 03:00:22;;;;;;;4.07;2.90;;;5.10;92.90;;;;;;4933051;29;20196;-46
2023/12/07 03:02:52;;;;;;;3.35;3.05;;;5.10;92.90;;;;;;4926670;29;20700;-45
2023/12/07 03:05:22;;;;;;;3.75;2.83;;;5.20;93.00;;;;;;4927575;29;20189;-46
2023/12/07 03:07:51;;;;;;;7.07;4.43;;;5.10;93.00;;;;;;4930444;29;20261;-45
2023/12/07 03:10:19;;;;;;;3.65;3.25;;;5.10;92.90;;;;;;4934682;29;20197;-44
2023/12/07 03:12:47;;;;;;;5.18;3.20;;;5.10;92.90;;;;;;4925972;29;20204;-44
2023/12/07 03:15:15;;;;;;;3.70;3.05;;;5.10;92.90;;;;;;4931397;29;20618;-45
2023/12/07 03:17:43;;;;;;;4.20;2.70;;;5.10;92.90;;;;;;4927350;29;20221;-45
2023/12/07 03:20:14;;;;;;;4.38;2.95;;;5.10;93.00;;;;;;4931650;29;20197;-46
2023/12/07 03:22:42;;;;;;;4.57;3.15;;;5.10;92.90;;;;;;4929409;29;20325;-47
2023/12/07 03:25:10;;;;;;;3.22;2.30;;;5.10;92.90;;;;;;4933474;29;20693;-46
2023/12/07 03:27:38;;;;;;;3.72;2.58;;;5.10;92.90;;;;;;4924343;29;20205;-44
2023/12/07 03:30:07;;;;;;;3.80;3.15;;;5.20;92.90;;;;;;4932519;29;20269;-44
2023/12/07 03:32:35;;;;;;;5.35;3.25;;;5.10;92.90;;;;;;4930914;29;20197;-44
2023/12/07 03:35:04;;;;;;;5.07;3.60;;;5.10;92.90;;;;;;4928493;29;20244;-47
2023/12/07 03:37:33;;;;;;;4.57;3.50;;;5.10;92.90;;;;;;4930959;29;20200;-44
2023/12/07 03:40:04;;;;;;;5.05;4.10;;;5.10;92.90;;;;;;4933212;29;20784;-45
2023/12/07 03:42:32;;;;;;;3.05;2.72;;;5.10;92.90;;;;;;4929760;29;20212;-45
2023/12/07 03:45:22;;;;;;;3.80;2.88;;;5.10;92.90;;;;;;4929190;29;20689;-46
2023/12/07 03:47:50;;;;;;;8.02;5.18;;;5.10;93.00;;;;;;4932448;29;20239;-46
2023/12/07 03:50:18;;;;;;;3.70;3.35;;;5.10;93.10;;;;;;4930457;29;20201;-45
2023/12/07 03:52:48;;;;;;;4.05;3.42;;;5.10;93.10;;;;;;4932326;29;20239;-45
2023/12/07 03:55:16;;;;;;;3.83;3.30;;;5.00;93.10;;;;;;4929070;29;20212;-45
2023/12/07 03:57:45;;;;;;;3.97;2.60;;;5.00;93.10;;;;;;4925466;29;20228;-45
2023/12/07 04:00:14;;;;;;;3.40;2.50;;;5.10;93.10;;;;;;4931880;29;20192;-45
2023/12/07 04:02:42;;;;;;;4.28;2.55;;;5.00;93.10;;;;;;4926579;29;20268;-45
2023/12/07 04:05:12;;;;;;;5.63;2.83;;;5.10;93.10;;;;;;4931748;29;20607;-45
2023/12/07 04:07:41;;;;;;;5.50;3.42;;;5.00;93.10;;;;;;4931380;29;20261;-47
2023/12/07 04:10:11;;;;;;;4.18;3.70;;;5.10;93.10;;;;;;4933055;29;20241;-44
2023/12/07 04:12:39;;;;;;;5.18;3.78;;;5.00;93.10;;;;;;4927047;29;20215;-46
2023/12/07 04:15:08;;;;;;;3.97;2.85;;;5.00;93.10;;;;;;4931622;29;20201;-45
2023/12/07 04:17:36;;;;;;;4.75;2.78;;;5.10;93.10;;;;;;4930458;29;20671;-45
2023/12/07 04:20:06;;;;;;;5.55;3.95;;;5.00;93.00;;;;;;4932509;29;20204;-45
2023/12/07 04:22:34;;;;;;;5.15;2.90;;;5.00;93.10;;;;;;4928268;29;20280;-44
2023/12/07 04:25:02;;;;;;;3.25;2.75;;;5.00;93.00;;;;;;4930717;29;20685;-46
2023/12/07 04:27:31;;;;;;;4.97;3.63;;;5.00;93.00;;;;;;4924121;29;20233;-44
2023/12/07 04:29:59;;;;;;;3.40;3.05;;;5.10;93.10;;;;;;4932157;29;20287;-46
2023/12/07 04:32:27;;;;;;;4.70;3.45;;;5.00;93.00;;;;;;4925577;29;20603;-46
2023/12/07 04:34:57;;;;;;;5.28;3.30;;;5.00;93.00;;;;;;4928215;29;20202;-46
2023/12/07 04:37:26;;;;;;;4.45;3.65;;;5.10;93.10;;;;;;4929623;29;20193;-46
2023/12/07 04:39:54;;;;;;;3.90;2.72;;;5.00;93.00;;;;;;4932112;29;20602;-45
2023/12/07 04:42:22;;;;;;;3.47;2.55;;;5.00;93.00;;;;;;4928696;29;20667;-46
2023/12/07 04:44:51;;;;;;;6.07;4.00;;;5.00;93.00;;;;;;4925303;29;20232;-50
2023/12/07 04:47:19;;;;;;;7.88;3.95;;;5.00;93.00;;;;;;4932575;29;20201;-46
2023/12/07 04:49:47;;;;;;;6.53;2.65;;;5.00;93.10;;;;;;4927531;29;20214;-45
2023/12/07 04:52:16;;;;;;;5.97;3.95;;;5.00;93.00;;;;;;4928568;29;20742;-44
2023/12/07 04:54:44;;;;;;;6.63;4.38;;;5.00;93.00;;;;;;4924858;29;20225;-44
2023/12/07 04:57:12;;;;;;;4.50;3.30;;;5.00;93.00;;;;;;4923505;29;20282;-45
2023/12/07 04:59:40;;;;;;;4.90;3.72;;;5.00;93.00;;;;;;4931939;29;20722;-44
2023/12/07 05:02:11;;;;;;;5.07;3.22;;;5.00;93.00;;;;;;4932009;29;20607;-45
2023/12/07 05:04:39;;;;;;;3.40;3.10;;;5.00;93.00;;;;;;4924788;29;20307;-45
2023/12/07 05:07:10;;;;;;;4.45;3.65;;;5.00;93.00;;;;;;4931509;29;20208;-46
2023/12/07 05:09:38;;;;;;;3.33;2.55;;;5.00;93.00;;;;;;4931492;29;20237;-45
2023/12/07 05:12:06;;;;;;;3.83;2.85;;;5.00;93.00;;;;;;4924999;29;20193;-46
2023/12/07 05:14:36;;;;;;;3.67;3.00;;;5.00;93.00;;;;;;4926655;29;20216;-46
2023/12/07 05:17:05;;;;;;;3.55;2.95;;;5.00;92.90;;;;;;4926737;29;20659;-44
2023/12/07 05:19:34;;;;;;;4.18;2.80;;;5.00;92.90;;;;;;4929343;29;20224;-44
2023/12/07 05:22:02;;;;;;;2.92;2.30;;;5.00;92.90;;;;;;4929165;29;20573;-44
2023/12/07 05:24:34;;;;;;;2.83;2.55;;;5.00;92.90;;;;;;4924931;29;20276;-45
2023/12/07 05:27:03;;;;;;;4.60;3.42;;;5.00;92.90;;;;;;4924387;29;20291;-46
2023/12/07 05:29:31;;;;;;;4.20;2.85;;;5.00;92.90;;;;;;4927721;29;20229;-47
2023/12/07 05:31:59;;;;;;;4.25;3.60;;;5.00;92.90;;;;;;4927224;29;20694;-47
2023/12/07 05:34:28;;;;;;;3.55;3.15;;;5.00;92.90;;;;;;4925129;29;20216;-47
2023/12/07 05:36:57;;;;;;;6.57;4.25;;;5.00;92.90;;;;;;4925850;29;20268;-46
2023/12/07 05:39:25;;;;;;;4.05;2.92;;;5.00;92.90;;;;;;4929352;29;20438;-44
2023/12/07 05:41:53;;;;;;;6.00;4.15;;;5.00;92.90;;;;;;4920273;29;20197;-45
2023/12/07 05:44:22;;;;;;;3.47;2.45;;;5.00;92.90;;;;;;4931825;29;20427;-44
2023/12/07 05:46:50;;;;;;;3.53;2.45;;;5.00;92.90;;;;;;4930806;29;20201;-46
2023/12/07 05:49:18;;;;;;;5.40;3.28;;;5.00;92.90;;;;;;4924030;29;20248;-44
2023/12/07 05:51:47;;;;;;;5.45;3.17;;;5.00;92.90;;;;;;4928531;29;20689;-46
2023/12/07 05:54:16;;;;;;;3.47;2.35;;;5.00;92.90;;;;;;4927961;29;20231;-46
2023/12/07 05:56:44;;;;;;;3.60;2.53;;;5.00;92.90;;;;;;4928267;29;20284;-46
2023/12/07 05:59:13;;;;;;;3.53;2.95;;;5.00;92.90;;;;;;4934007;29;20239;-44
2023/12/07 06:01:41;;;;;;;3.25;2.38;;;5.00;92.90;;;;;;4934318;29;20196;-45
2023/12/07 06:04:10;;;;;;;4.85;3.72;;;5.00;92.90;;;;;;4934573;29;20785;-44
2023/12/07 06:06:38;;;;;;;4.35;3.83;;;4.90;92.80;;;;;;4931586;29;20223;-46
2023/12/07 06:09:06;;;;;;;7.50;4.53;;;5.00;92.80;;;;;;4932564;29;20225;-47
2023/12/07 06:11:35;;;;;;;3.58;3.20;;;4.90;92.80;;;;;;4931677;29;20205;-45
2023/12/07 06:14:06;;;;;;;4.95;3.15;;;4.90;92.80;;;;;;4933197;29;20237;-44
2023/12/07 06:16:35;;;;;;;4.07;2.50;;;4.90;92.90;;;;;;4933808;29;20197;-48
2023/12/07 06:19:03;;;;;;;6.57;4.70;;;5.00;92.90;;;;;;4931920;29;20252;-44
2023/12/07 06:21:33;;;;;;;3.40;3.10;;;4.90;92.80;;;;;;4931044;29;20195;-45
2023/12/07 06:24:01;;;;;;;6.78;4.95;;;5.00;92.90;;;;;;4932325;29;20217;-46
2023/12/07 06:26:29;;;;;;;4.65;3.70;;;4.90;92.80;;;;;;4932139;29;20204;-45
2023/12/07 06:29:03;;;;;;;4.13;3.50;;;4.90;92.80;;;;;;4933800;29;20279;-45
2023/12/07 06:31:31;;;;;;;4.20;2.85;;;4.90;92.90;;;;;;4931517;29;20211;-45
2023/12/07 06:34:00;;;;;;;5.78;4.50;;;4.90;92.90;;;;;;4931589;29;20305;-45
2023/12/07 06:36:28;;;;;;;6.53;4.45;;;4.90;92.80;;;;;;4932804;29;20280;-44
2023/12/07 06:38:57;;;;;;;8.10;4.25;;;4.90;92.80;;;;;;4932886;29;20587;-44
2023/12/07 06:41:25;;;;;;;5.28;3.65;;;4.90;92.90;;;;;;4927464;29;20205;-46
2023/12/07 06:43:54;;;;;;;7.70;4.07;;;4.90;92.90;;;;;;4931175;29;20217;-44
2023/12/07 06:46:25;;;;;;;6.53;4.65;;;4.90;92.90;;;;;;4934752;29;20677;-45
2023/12/07 06:48:53;;;;;;;4.35;3.70;;;4.90;92.90;;;;;;4929436;29;20229;-46
2023/12/07 06:51:21;;;;;;;4.65;3.65;;;4.80;93.40;;;;;;4932895;29;20666;-45
2023/12/07 06:53:49;;;;;;;4.40;3.67;;;4.80;92.90;;;;;;4926952;29;20225;-45
2023/12/07 06:56:17;;;;;;;3.55;2.80;;;4.80;92.90;;;;;;4930463;29;20288;-47
2023/12/07 06:58:45;;;;;;;4.38;3.50;;;4.80;92.90;;;;;;4930812;29;20633;-46
2023/12/07 07:01:14;;;;;;;7.22;4.45;;;4.80;92.90;;;;;;4932834;29;20623;-45
2023/12/07 07:03:44;;;;;;;4.40;3.25;;;4.80;92.90;;;;;;4930642;29;20229;-44
2023/12/07 07:06:12;;;;;;;4.85;3.40;;;4.80;92.90;;;;;;4928042;29;20201;-46
2023/12/07 07:08:40;;;;;;;3.55;3.22;;;4.80;92.90;;;;;;4930541;29;20252;-44
2023/12/07 07:11:14;;;;;;;6.68;3.70;;;4.80;92.90;;;;;;4926061;29;20247;-43
2023/12/07 07:13:42;;;;;;;5.65;3.95;;;4.80;92.90;;;;;;4927106;29;20619;-45
2023/12/07 07:16:10;;;;;;;5.35;3.40;;;4.80;92.90;;;;;;4933701;29;20205;-45
2023/12/07 07:18:39;;;;;;;5.82;4.25;;;4.80;92.90;;;;;;4927389;29;20224;-44
2023/12/07 07:21:08;;;;;;;4.80;3.20;;;4.80;92.90;;;;;;4931266;29;20204;-44
2023/12/07 07:23:37;;;;;;;5.28;4.15;;;4.80;92.90;;;;;;4926347;29;20229;-45
2023/12/07 07:26:05;;;;;;;3.65;2.90;;;4.80;92.90;;;;;;4922273;29;20714;-47
2023/12/07 07:28:33;;;;;;;4.97;4.07;;;4.80;92.90;;;;;;4928942;29;20216;-45
2023/12/07 07:31:02;;;;;;;3.97;3.55;;;4.80;92.90;;;;;;4928617;29;20751;-44
2023/12/07 07:33:30;;;;;;;6.35;4.15;;;4.70;92.80;;;;;;4927565;29;20291;-45
2023/12/07 07:35:58;;;;;;;4.68;3.45;;;4.70;92.80;;;;;;4930823;29;20212;-45
2023/12/07 07:38:30;;;;;;;5.75;4.05;;;4.70;92.80;;;;;;4929241;29;20228;-45
2023/12/07 07:40:58;;;;;;;6.22;4.20;;;4.80;92.90;;;;;;4931505;29;20209;-45
2023/12/07 07:43:26;;;;;;;4.78;3.67;;;4.80;92.80;;;;;;4931441;29;20714;-46
2023/12/07 07:45:54;;;;;;;4.47;3.20;;;4.70;92.80;;;;;;4933635;29;20291;-46
2023/12/07 07:48:22;;;;;;;5.47;4.10;;;4.70;92.80;;;;;;4924042;29;20228;-47
2023/12/07 07:50:50;;;;;;;5.10;4.28;;;4.70;92.70;;;;;;4923914;29;20450;-45
2023/12/07 07:53:18;;;;;;;7.07;5.18;;;4.70;93.40;;;;;;4928881;29;20213;-45
2023/12/07 07:55:48;;;;;;;9.52;5.00;;;4.70;92.80;;;;;;4928894;29;20188;-44
2023/12/07 07:58:17;;;;;;;6.55;5.85;;;4.70;92.70;;;;;;4928399;28;20231;-44
2023/12/07 08:00:46;;;;;;;5.65;5.05;;;4.70;92.70;;;;;;4925404;29;20209;-46
2023/12/07 08:03:14;;;;;;;5.28;4.75;;;4.70;92.70;;;;;;4929817;29;20232;-46
2023/12/07 08:05:42;;;;;;;4.55;3.63;;;4.70;92.70;;;;;;4931366;29;20224;-46
2023/12/07 08:08:11;;;;;;;5.22;4.30;;;4.70;92.80;;;;;;4930890;29;20233;-47
2023/12/07 08:10:39;;;;;;;8.00;4.50;;;4.70;92.80;;;;;;4929907;29;20208;-46
2023/12/07 08:13:24;;;;;;;6.00;4.18;;;4.70;92.80;;;;;;4930496;29;20247;-45
2023/12/07 08:15:53;;;;;;;8.40;4.97;;;4.70;93.20;;;;;;4932172;29;20197;-45
2023/12/07 08:18:25;;;;;;;6.20;4.50;;;4.70;92.80;;;;;;4928450;29;20651;-45
2023/12/07 08:20:54;;;;;;;4.00;3.50;;;4.70;92.80;;;;;;4928758;29;20204;-46
2023/12/07 08:23:22;;;;;;;6.40;3.95;;;4.70;92.90;;;;;;4930359;29;20225;-46
2023/12/07 08:25:50;;;;;;;4.63;4.13;;;4.70;92.80;;;;;;4925878;29;20220;-47
2023/12/07 08:28:18;;;;;;;6.10;4.22;;;4.70;92.90;;;;;;4929536;29;20220;-45
2023/12/07 08:30:48;;;;;;;8.50;4.40;;;4.70;92.90;;;;;;4930335;29;20213;-47
2023/12/07 08:33:16;;;;;;;5.78;4.30;;;4.70;92.90;;;;;;4925530;29;20212;-45
2023/12/07 08:35:44;;;;;;;4.32;3.65;;;4.70;92.90;;;;;;4923076;29;20200;-46
2023/12/07 08:38:13;;;;;;;4.70;3.60;;;4.70;92.90;;;;;;4926347;29;20225;-47
2023/12/07 08:40:41;;;;;;;7.25;4.00;;;4.70;92.90;;;;;;4932794;29;20271;-45
2023/12/07 08:43:10;;;;;;;6.70;4.93;;;4.70;92.90;;;;;;4925967;29;20220;-44
2023/12/07 08:45:38;;;;;;;6.30;4.57;;;4.70;92.90;;;;;;4933078;29;20586;-44
2023/12/07 08:48:08;;;;;;;4.72;3.70;;;4.70;92.90;;;;;;4928954;29;20221;-44
2023/12/07 08:50:36;;;;;;;6.30;4.32;;;4.70;92.90;;;;;;4930274;29;20197;-43
2023/12/07 08:53:04;;;;;;;5.50;3.50;;;4.70;92.90;;;;;;4932162;29;20232;-45
2023/12/07 08:55:33;;;;;;;4.78;3.70;;;4.70;92.90;;;;;;4933604;29;20199;-44
2023/12/07 08:58:03;;;;;;;3.67;3.20;;;4.70;92.90;;;;;;4928306;29;20247;-45
2023/12/07 09:00:32;;;;;;;5.13;3.85;;;4.70;92.90;;;;;;4932934;29;20201;-44
2023/12/07 09:03:01;;;;;;;5.05;3.50;;;4.70;93.00;;;;;;4931801;29;20709;-45
2023/12/07 09:05:31;;;;;;;4.30;3.03;;;4.70;92.90;;;;;;4928301;29;20686;-44
2023/12/07 09:07:59;;;;;;;4.15;3.17;;;4.70;92.90;;;;;;4932270;29;20224;-47
2023/12/07 09:10:27;;;;;;;6.40;4.30;;;4.70;92.90;;;;;;4932747;29;20193;-45
2023/12/07 09:12:56;;;;;;;5.20;4.00;;;4.70;92.90;;;;;;4927111;29;20251;-46
2023/12/07 09:15:24;;;;;;;4.20;2.90;;;4.80;93.00;;;;;;4925602;29;20781;-44
2023/12/07 09:17:55;;;;;;;4.60;2.90;;;4.80;92.90;;;;;;4931639;29;20235;-44
2023/12/07 09:20:24;;;;;;;4.40;2.53;;;4.80;92.90;;;;;;4930678;29;20339;-46
2023/12/07 09:22:55;;;;;;;4.53;3.15;;;4.80;92.80;;;;;;4927511;29;20231;-45
2023/12/07 09:25:23;;;;;;;4.28;2.60;;;4.90;92.70;;;;;;4926378;29;20208;-46
2023/12/07 09:27:51;;;;;;;5.07;3.42;;;4.90;92.70;;;;;;4925636;29;20231;-46
2023/12/07 09:30:19;;;;;;;3.90;2.92;;;4.90;92.60;;;;;;4924615;29;20224;-45
2023/12/07 09:32:47;;;;;;;4.60;2.92;;;4.90;92.50;;;;;;4928068;29;20227;-47
2023/12/07 09:35:18;;;;;;;3.75;2.60;;;4.90;92.50;;;;;;4928938;29;20211;-46
2023/12/07 09:37:50;;;;;;;3.97;2.55;;;4.90;92.50;;;;;;4924497;29;22019;-45
2023/12/07 09:40:21;;;;;;;2.97;2.67;;;5.00;92.30;;;;;;4927729;29;20203;-46
2023/12/07 09:42:53;;;;;;;4.38;2.45;;;5.00;92.30;;;;;;4921930;29;20635;-46
2023/12/07 09:45:21;;;;;;;3.22;2.60;;;5.00;92.20;;;;;;4930631;29;20197;-44
2023/12/07 09:47:52;;;;;;;4.10;3.60;;;5.00;92.30;;;;;;4917884;29;20256;-45
2023/12/07 09:50:22;;;;;;;8.20;3.55;;;5.00;92.40;;;;;;4923496;29;20292;-46
2023/12/07 09:52:51;;;;;;;6.78;3.53;;;5.00;92.40;;;;;;4925999;29;20591;-46
2023/12/07 09:55:36;;;;;;;6.25;3.00;;;5.10;92.40;;;;;;4929099;29;20227;-46
2023/12/07 09:58:06;;;;;;;8.32;3.28;;;5.00;92.30;;;;;;4928166;29;20279;-45
2023/12/07 10:00:36;;;;;;;5.45;3.63;;;5.00;92.30;;;;;;4931429;29;20193;-44
2023/12/07 10:03:07;;;;;;;4.50;2.72;;;5.00;92.20;;;;;;4921351;29;20229;-45
2023/12/07 10:05:55;;;;;;;5.38;4.20;;;5.00;92.20;;;;;;4930659;29;20212;-46
2023/12/07 10:08:28;;;;;;;7.20;3.28;;;5.00;92.30;;;;;;4930093;29;20287;-45
2023/12/07 10:11:06;;;;;;;3.78;3.17;;;5.00;92.30;;;;;;4926559;29;20567;-51
2023/12/07 10:13:35;;;;;;;4.25;2.90;;;5.00;92.20;;;;;;4930451;29;20220;-47
2023/12/07 10:16:09;;;;;;;3.05;2.70;;;5.00;92.20;;;;;;4928548;29;20200;-45
2023/12/07 10:18:37;;;;;;;3.53;3.00;;;5.00;92.20;;;;;;4928851;29;20231;-45
2023/12/07 10:21:10;;;;;;;3.45;2.30;;;5.00;92.30;;;;;;4925926;29;20676;-46
2023/12/07 10:23:38;;;;;;;3.33;2.50;;;5.00;92.20;;;;;;4929531;29;20781;-46
2023/12/07 10:26:08;;;;;;;3.40;2.45;;;5.00;92.20;;;;;;4922723;29;20630;-45
2023/12/07 10:28:37;;;;;;;5.40;2.70;;;5.00;92.30;;;;;;4918988;29;20315;-46
2023/12/07 10:31:09;;;;;;;4.13;2.25;;;5.00;92.30;;;;;;4919442;29;20208;-46
2023/12/07 10:33:37;;;;;;;5.15;3.40;;;5.00;92.30;;;;;;4926400;29;20631;-46
2023/12/07 10:36:06;;;;;;;5.05;3.17;;;5.00;92.30;;;;;;4926760;29;20197;-44
2023/12/07 10:38:34;;;;;;;4.32;2.40;;;5.00;92.30;;;;;;4931178;29;20650;-46
2023/12/07 10:41:06;;;;;;;4.00;2.65;;;5.00;92.40;;;;;;4929418;29;20243;-46
2023/12/07 10:43:38;;;;;;;4.28;2.45;;;5.00;92.40;;;;;;4932976;29;20677;-44
2023/12/07 10:46:09;;;;;;;3.45;2.00;;;5.00;92.50;;;;;;4932765;29;20742;-45
2023/12/07 10:48:39;;;;;;;4.35;2.60;;;5.00;92.50;;;;;;4929265;29;20216;-45
2023/12/07 10:51:09;;;;;;;2.85;2.47;;;5.00;92.50;;;;;;4932152;29;20259;-44
2023/12/07 10:53:43;;;;;;;4.10;2.55;;;4.90;92.50;;;;;;4932565;29;20221;-46
2023/12/07 10:56:14;;;;;;;9.68;2.75;;;5.00;92.60;;;;;;4933111;29;20250;-45
2023/12/07 10:58:46;;;;;;;3.53;2.80;;;5.00;92.60;;;;;;4933232;29;20231;-44
2023/12/07 11:01:15;;;;;;;3.53;2.90;;;4.90;92.50;;;;;;4932244;29;20205;-46
2023/12/07 11:03:45;;;;;;;3.45;2.85;;;4.90;92.70;;;;;;4922477;29;20757;-45
2023/12/07 11:06:14;;;;;;;4.28;3.10;;;5.00;92.80;;;;;;4930860;29;20232;-46
2023/12/07 11:08:47;;;;;;;4.47;3.22;;;5.00;92.80;;;;;;4928835;29;20753;-46
2023/12/07 11:11:22;;;;;;;3.45;2.70;;;4.90;92.70;;;;;;4928876;29;20205;-45
2023/12/07 11:13:57;;;;;;;4.65;3.40;;;4.90;92.80;;;;;;4926637;29;20230;-44
2023/12/07 11:16:30;;;;;;;5.70;3.33;;;4.90;92.70;;;;;;4927676;29;20193;-46
2023/12/07 11:18:59;;;;;;;3.72;3.20;;;4.90;92.70;;;;;;4933632;29;20233;-45
2023/12/07 11:21:27;;;;;;;6.43;3.15;;;4.90;92.80;;;;;;4932468;29;20224;-44
2023/12/07 11:23:56;;;;;;;4.45;3.28;;;4.90;92.70;;;;;;4933658;29;20225;-45
2023/12/07 11:26:24;;;;;;;4.80;3.35;;;4.90;92.80;;;;;;4929867;29;20220;-46
2023/12/07 11:28:58;;;;;;;4.68;3.40;;;4.90;92.90;;;;;;4933403;29;20224;-44
2023/12/07 11:31:28;;;;;;;3.80;2.78;;;4.90;92.80;;;;;;4932296;29;20201;-48
2023/12/07 11:33:56;;;;;;;4.30;2.63;;;4.90;92.80;;;;;;4930594;29;20311;-46
2023/12/07 11:36:24;;;;;;;4.10;2.58;;;4.90;92.80;;;;;;4930640;29;20209;-45
2023/12/07 11:39:18;;;;;;;6.85;2.78;;;4.90;92.90;;;;;;4933866;29;20229;-45
2023/12/07 11:41:56;;;;;;;5.07;2.85;;;4.90;92.90;;;;;;4929443;29;20566;-47
2023/12/07 11:44:38;;;;;;;4.22;2.95;;;4.90;92.90;;;;;;4930141;29;20248;-47
2023/12/07 11:47:06;;;;;;;4.75;3.03;;;4.90;92.90;;;;;;4930647;29;20299;-49
2023/12/07 11:49:37;;;;;;;5.32;3.63;;;4.90;92.90;;;;;;4924517;29;20622;-46
2023/12/07 11:52:18;;;;;;;4.43;3.33;;;4.90;93.00;;;;;;4925529;29;20204;-49
2023/12/07 11:54:51;;;;;;;6.35;3.35;;;4.90;93.00;;;;;;4932775;28;20240;-46
2023/12/07 11:57:19;;;;;;;6.40;3.50;;;4.90;92.90;;;;;;4929879;29;20271;-45
2023/12/07 11:59:51;;;;;;;8.95;3.30;;;4.90;93.00;;;;;;4931115;29;20258;-44
2023/12/07 12:02:19;;;;;;;4.45;2.70;;;4.90;92.90;;;;;;4925843;29;20650;-43
2023/12/07 12:04:47;;;;;;;6.40;3.92;;;4.90;93.00;;;;;;4929730;29;20232;-45
2023/12/07 12:07:15;;;;;;;4.95;3.80;;;4.90;93.10;;;;;;4933059;29;20279;-44
2023/12/07 12:09:44;;;;;;;4.90;2.88;;;4.90;93.20;;;;;;4923992;29;20785;-44
2023/12/07 12:12:15;;;;;;;3.92;3.08;;;4.90;93.10;;;;;;4922307;29;20288;-44
2023/12/07 12:14:43;;;;;;;4.53;2.83;;;4.80;93.00;;;;;;4925885;29;20711;-42
2023/12/07 12:17:16;;;;;;;8.50;3.42;;;4.90;93.10;;;;;;4919976;29;20189;-43
2023/12/07 12:19:44;;;;;;;6.57;3.55;;;4.90;93.10;;;;;;4923560;29;20232;-46
2023/12/07 12:22:12;;;;;;;5.15;4.20;;;5.00;93.10;;;;;;4923441;29;20212;-49
2023/12/07 12:24:41;;;;;;;6.47;4.43;;;5.00;93.20;;;;;;4924366;29;20647;-48
2023/12/07 12:27:09;;;;;;;7.07;4.25;;;5.00;93.20;;;;;;4929151;29;20232;-49
2023/12/07 12:29:38;;;;;;;7.78;5.28;;;5.00;93.20;;;;;;4932476;29;20275;-46
2023/12/07 12:32:06;;;;;;;6.72;4.93;;;5.00;93.20;;;;;;4931733;29;20205;-50
2023/12/07 12:34:36;;;;;;;9.10;5.40;;;5.10;93.20;;;;;;4929067;29;20216;-47
2023/12/07 12:37:06;;;;;;;8.75;5.90;;;5.00;93.60;;;;;;4924080;29;20530;-45
2023/12/07 12:39:35;;;;;;;7.20;5.20;;;5.10;93.70;;;;;;4917777;29;20243;-47
2023/12/07 12:42:05;;;;;;;6.43;4.95;;;5.10;93.50;;;;;;4930347;29;20219;-48
2023/12/07 12:44:33;;;;;;;6.18;4.13;;;5.00;93.50;;;;;;4932704;29;20710;-44
2023/12/07 12:47:08;;;;;;;8.13;5.78;;;5.00;93.60;;;;;;4932858;29;22069;-45
2023/12/07 12:49:39;;;;;;;5.85;4.25;;;4.90;93.60;;;;;;4929083;29;20711;-45
2023/12/07 12:52:11;;;;;;;8.63;4.70;;;4.90;93.60;;;;;;4926468;29;20224;-46
2023/12/07 12:54:43;;;;;;;5.28;4.38;;;4.90;93.60;;;;;;4927475;29;20221;-44
2023/12/07 12:57:11;;;;;;;5.95;3.90;;;4.90;93.60;;;;;;4930325;29;20671;-46
2023/12/07 12:59:39;;;;;;;6.47;4.10;;;4.90;93.70;;;;;;4932127;29;20328;-46
2023/12/07 13:02:08;;;;;;;4.88;3.80;;;4.90;93.70;;;;;;4931790;29;20576;-44
2023/12/07 13:04:38;;;;;;;6.15;3.67;;;4.90;93.60;;;;;;4928173;29;20816;-44
2023/12/07 13:07:09;;;;;;;5.88;4.05;;;4.90;93.60;;;;;;4931994;29;20215;-47
2023/12/07 13:09:38;;;;;;;8.20;5.05;;;4.90;93.60;;;;;;4932102;29;20599;-45